Time;durP1;ratioP1;P1;durP2;ratioP2;P2;SDS_P1;SDS_P2;PMS_P1;PMS_P2;Temp;Humidity;BMP_temperature;BMP_pressure;BME280_temperature;BME280_humidity;BME280_pressure;Samples;Min_cycle;Max_cycle;Signal;HPM_P1;HPM_P2
2022/01/17 00:01:10;;;;;;;42.30;23.50;;;3.90;99.90;;;;;;4954765;29;20320;-74
2022/01/17 00:03:56;;;;;;;45.70;24.05;;;3.90;99.90;;;;;;4952717;28;20203;-74
2022/01/17 00:06:43;;;;;;;39.63;22.70;;;3.90;99.90;;;;;;4953412;29;20282;-73
2022/01/17 00:09:29;;;;;;;41.95;25.35;;;3.90;99.90;;;;;;4948671;29;20790;-74
2022/01/17 00:12:16;;;;;;;43.67;25.00;;;3.80;99.90;;;;;;4954272;29;20348;-72
2022/01/17 00:15:02;;;;;;;43.15;23.33;;;3.90;99.90;;;;;;4952413;29;20208;-71
2022/01/17 00:17:51;;;;;;;40.15;24.08;;;3.90;99.90;;;;;;4954129;29;20207;-71
2022/01/17 00:20:37;;;;;;;42.03;23.65;;;3.90;99.90;;;;;;4949878;29;20207;-71
2022/01/17 00:23:22;;;;;;;45.28;24.13;;;3.90;99.90;;;;;;4947466;29;20580;-71
2022/01/17 00:26:08;;;;;;;41.88;24.45;;;3.90;99.90;;;;;;4954650;29;20235;-71
2022/01/17 00:28:55;;;;;;;46.53;23.45;;;3.90;99.90;;;;;;4952924;29;20204;-71
2022/01/17 00:31:41;;;;;;;49.53;24.30;;;4.00;99.90;;;;;;4949635;28;20727;-72
2022/01/17 00:34:27;;;;;;;38.83;23.88;;;4.00;99.90;;;;;;4945515;28;20718;-71
2022/01/17 00:37:13;;;;;;;41.78;24.75;;;4.00;99.90;;;;;;4954106;29;20212;-70
2022/01/17 00:39:59;;;;;;;47.05;24.23;;;3.90;99.90;;;;;;4953346;29;20215;-71
2022/01/17 00:42:44;;;;;;;37.13;23.58;;;4.00;99.90;;;;;;4953868;28;20704;-71
2022/01/17 00:45:31;;;;;;;42.13;23.95;;;4.00;99.90;;;;;;4953035;29;20223;-72
2022/01/17 00:48:17;;;;;;;40.58;25.00;;;4.00;99.90;;;;;;4954936;29;20256;-71
2022/01/17 00:51:03;;;;;;;48.90;26.60;;;3.90;99.90;;;;;;4950500;28;20208;-71
2022/01/17 00:53:48;;;;;;;36.88;23.63;;;3.80;99.90;;;;;;4950170;29;20279;-71
2022/01/17 00:56:34;;;;;;;48.25;24.67;;;3.80;99.90;;;;;;4950804;29;20208;-71
2022/01/17 00:59:20;;;;;;;38.30;24.05;;;3.80;99.90;;;;;;4953854;29;20284;-72
2022/01/17 01:02:07;;;;;;;45.70;25.30;;;3.90;99.90;;;;;;4952793;28;20236;-71
2022/01/17 01:04:52;;;;;;;43.97;23.75;;;3.80;99.90;;;;;;4951886;29;20274;-71
2022/01/17 01:07:38;;;;;;;46.65;23.50;;;3.90;99.90;;;;;;4952595;29;20204;-73
2022/01/17 01:10:23;;;;;;;41.28;23.50;;;3.90;99.90;;;;;;4952198;29;20208;-71
2022/01/17 01:13:09;;;;;;;47.20;24.70;;;3.90;99.90;;;;;;4950671;29;20539;-71
2022/01/17 01:16:10;;;;;;;47.33;25.92;;;4.00;99.90;;;;;;4951089;29;20211;-71
2022/01/17 01:28:17;;;;;;;44.25;24.08;;;4.10;99.90;;;;;;4920119;29;20220;-70
2022/01/17 01:31:10;;;;;;;43.33;22.77;;;4.20;99.90;;;;;;4953526;28;20224;-71
2022/01/17 01:34:03;;;;;;;45.03;24.33;;;4.10;99.90;;;;;;4947728;29;20204;-70
2022/01/17 01:36:49;;;;;;;42.25;24.17;;;4.10;99.90;;;;;;4952170;29;20213;-72
2022/01/17 01:39:37;;;;;;;41.95;22.80;;;4.00;99.90;;;;;;4946704;29;20275;-73
2022/01/17 01:42:24;;;;;;;37.17;21.70;;;3.90;99.90;;;;;;4954697;29;20224;-71
2022/01/17 01:45:12;;;;;;;40.35;23.25;;;3.90;99.90;;;;;;4941462;29;20215;-71
2022/01/17 01:47:58;;;;;;;48.42;24.70;;;4.00;99.90;;;;;;4952205;29;20304;-70
2022/01/17 01:50:45;;;;;;;41.40;24.15;;;4.00;99.90;;;;;;4953483;29;20204;-72
2022/01/17 01:53:31;;;;;;;47.70;25.65;;;3.90;99.90;;;;;;4943621;29;20240;-71
2022/01/17 01:56:16;;;;;;;37.55;22.15;;;3.90;99.90;;;;;;4946341;29;20277;-70
2022/01/17 01:59:02;;;;;;;42.33;24.05;;;3.90;99.90;;;;;;4952743;29;20204;-72
2022/01/17 02:01:49;;;;;;;44.85;25.75;;;3.90;99.90;;;;;;4953142;28;20240;-72
2022/01/17 02:04:34;;;;;;;47.70;25.75;;;3.90;99.90;;;;;;4950560;29;20203;-71
2022/01/17 02:07:22;;;;;;;41.08;22.50;;;3.90;99.90;;;;;;4944782;29;20212;-71
2022/01/17 02:10:08;;;;;;;42.70;22.98;;;3.90;99.90;;;;;;4950748;29;20215;-70
2022/01/17 02:12:54;;;;;;;40.75;23.08;;;4.00;99.90;;;;;;4946316;29;20252;-72
2022/01/17 02:15:42;;;;;;;47.28;24.77;;;4.00;99.90;;;;;;4952121;29;20208;-71
2022/01/17 02:18:30;;;;;;;47.85;24.80;;;4.00;99.90;;;;;;4952138;29;20339;-72
2022/01/17 02:21:30;;;;;;;49.95;24.83;;;4.00;99.90;;;;;;4952086;28;20227;-71
2022/01/17 02:24:18;;;;;;;44.58;24.30;;;4.00;99.90;;;;;;4946859;29;20204;-71
2022/01/17 02:27:04;;;;;;;41.13;23.05;;;4.00;99.90;;;;;;4952683;29;20682;-71
2022/01/17 02:29:50;;;;;;;51.72;26.10;;;4.00;99.90;;;;;;4951346;29;20200;-70
2022/01/17 02:32:35;;;;;;;45.60;24.83;;;3.90;99.90;;;;;;4943611;28;20583;-71
2022/01/17 02:35:23;;;;;;;52.70;26.08;;;3.90;99.90;;;;;;4954299;28;20572;-71
2022/01/17 02:38:10;;;;;;;50.22;26.33;;;3.80;99.90;;;;;;4953042;29;20208;-72
2022/01/17 02:40:56;;;;;;;47.13;23.00;;;3.80;99.90;;;;;;4949861;28;20264;-71
2022/01/17 02:43:43;;;;;;;50.60;24.55;;;3.90;99.90;;;;;;4944524;29;20699;-71
2022/01/17 02:46:29;;;;;;;48.35;24.45;;;4.00;99.90;;;;;;4952314;29;20208;-71
2022/01/17 02:49:15;;;;;;;46.90;24.50;;;4.00;99.90;;;;;;4951710;29;20208;-71
2022/01/17 02:52:00;;;;;;;49.50;26.02;;;3.90;99.90;;;;;;4950231;28;20591;-71
2022/01/17 02:54:47;;;;;;;47.30;24.40;;;3.70;99.90;;;;;;4947293;29;20579;-71
2022/01/17 02:57:33;;;;;;;49.25;25.38;;;3.70;99.90;;;;;;4950955;28;20717;-74
2022/01/17 03:00:20;;;;;;;54.30;26.25;;;3.70;99.90;;;;;;4950252;28;20299;-71
2022/01/17 03:03:09;;;;;;;51.58;25.40;;;3.60;99.90;;;;;;4954777;28;20600;-71
2022/01/17 03:05:55;;;;;;;55.05;28.10;;;3.60;99.90;;;;;;4955736;29;20216;-71
2022/01/17 03:08:42;;;;;;;58.20;27.35;;;3.60;99.90;;;;;;4955001;29;20211;-70
2022/01/17 03:11:29;;;;;;;46.22;26.02;;;3.60;99.90;;;;;;4954096;28;20239;-72
2022/01/17 03:14:15;;;;;;;54.60;27.63;;;3.70;99.90;;;;;;4955996;29;20267;-71
2022/01/17 03:17:01;;;;;;;49.05;24.15;;;3.60;99.90;;;;;;4955508;28;20332;-73
2022/01/17 03:19:47;;;;;;;56.90;26.13;;;3.70;99.90;;;;;;4953780;29;20224;-70
2022/01/17 03:22:33;;;;;;;52.53;26.27;;;3.70;99.90;;;;;;4952085;28;20291;-71
2022/01/17 03:25:18;;;;;;;48.95;24.70;;;3.60;99.90;;;;;;4955714;29;20584;-71
2022/01/17 03:28:06;;;;;;;49.95;25.70;;;3.60;99.90;;;;;;4955508;29;20204;-70
2022/01/17 03:30:52;;;;;;;51.05;25.23;;;3.70;99.90;;;;;;4954778;28;20208;-71
2022/01/17 03:33:38;;;;;;;47.13;26.05;;;3.70;99.90;;;;;;4952652;29;20280;-71
2022/01/17 03:36:24;;;;;;;55.67;25.02;;;3.70;99.90;;;;;;4953720;29;20199;-71
2022/01/17 03:39:09;;;;;;;46.58;24.15;;;3.70;99.90;;;;;;4954761;29;20212;-71
2022/01/17 03:41:55;;;;;;;50.88;24.65;;;3.70;99.90;;;;;;4950186;28;20315;-72
2022/01/17 03:44:42;;;;;;;46.33;24.80;;;3.80;99.90;;;;;;4954824;29;20223;-71
2022/01/17 03:47:27;;;;;;;47.75;24.17;;;3.80;99.90;;;;;;4954664;29;20569;-71
2022/01/17 03:50:17;;;;;;;47.65;22.13;;;3.90;99.90;;;;;;4954751;29;20212;-72
2022/01/17 03:53:02;;;;;;;48.45;23.48;;;3.90;99.90;;;;;;4954047;29;20271;-71
2022/01/17 03:55:48;;;;;;;47.70;23.85;;;3.80;99.90;;;;;;4954014;29;20297;-71
2022/01/17 03:58:34;;;;;;;58.10;26.02;;;3.90;99.90;;;;;;4953160;28;20212;-71
2022/01/17 04:01:21;;;;;;;49.78;25.77;;;3.70;99.90;;;;;;4943071;28;20227;-71
2022/01/17 04:04:07;;;;;;;51.58;25.98;;;3.70;99.90;;;;;;4953067;29;20333;-71
2022/01/17 04:06:52;;;;;;;55.60;25.20;;;3.70;99.90;;;;;;4951789;29;20195;-71
2022/01/17 04:09:38;;;;;;;47.50;24.90;;;3.70;99.90;;;;;;4952726;28;20211;-71
2022/01/17 04:12:24;;;;;;;54.85;24.17;;;3.70;99.90;;;;;;4941884;29;20458;-72
2022/01/17 04:15:11;;;;;;;45.20;25.17;;;3.60;99.90;;;;;;4954813;29;20208;-71
2022/01/17 04:17:58;;;;;;;44.10;23.40;;;3.60;99.90;;;;;;4950860;29;20208;-71
2022/01/17 04:20:44;;;;;;;44.13;23.13;;;3.70;99.90;;;;;;4951419;29;20272;-71
2022/01/17 04:23:30;;;;;;;42.05;22.40;;;3.70;99.90;;;;;;4948357;28;20766;-71
2022/01/17 04:26:15;;;;;;;43.97;23.58;;;3.70;99.90;;;;;;4955042;29;20203;-71
2022/01/17 04:29:01;;;;;;;47.65;23.30;;;3.70;99.90;;;;;;4950233;29;20310;-71
2022/01/17 04:31:47;;;;;;;49.83;25.05;;;3.60;99.90;;;;;;4949749;29;20302;-71
2022/01/17 04:34:34;;;;;;;48.45;24.17;;;3.60;99.90;;;;;;4953528;29;20382;-72
2022/01/17 04:37:19;;;;;;;42.33;22.70;;;3.70;99.90;;;;;;4953354;29;20208;-70
2022/01/17 04:40:07;;;;;;;39.00;19.95;;;3.70;99.90;;;;;;4953362;29;20212;-74
2022/01/17 04:42:56;;;;;;;48.35;23.00;;;3.70;99.90;;;;;;4951938;29;20231;-71
2022/01/17 04:45:41;;;;;;;43.45;24.15;;;3.60;99.90;;;;;;4955475;29;20196;-71
2022/01/17 04:48:27;;;;;;;49.33;24.95;;;3.70;99.90;;;;;;4954774;29;20215;-71
2022/01/17 04:51:14;;;;;;;52.38;24.05;;;3.50;99.90;;;;;;4951399;28;20220;-71
2022/01/17 04:54:20;;;;;;;44.92;23.33;;;3.50;99.90;;;;;;4953564;29;20579;-71
2022/01/17 04:57:06;;;;;;;46.85;24.48;;;3.60;99.90;;;;;;4953177;28;20351;-71
2022/01/17 04:59:52;;;;;;;40.70;21.33;;;3.60;99.90;;;;;;4953551;29;20279;-71
2022/01/17 05:02:37;;;;;;;42.40;23.20;;;3.60;99.90;;;;;;4943826;29;20272;-71
2022/01/17 05:05:24;;;;;;;41.70;20.80;;;3.70;99.90;;;;;;4948650;29;20276;-71
2022/01/17 05:08:11;;;;;;;46.88;23.75;;;3.70;99.90;;;;;;4953971;29;20340;-72
2022/01/17 05:10:57;;;;;;;45.15;22.98;;;3.70;99.90;;;;;;4945961;29;20212;-71
2022/01/17 05:13:47;;;;;;;46.05;23.75;;;3.70;99.90;;;;;;4954495;29;20204;-71
2022/01/17 05:16:36;;;;;;;44.92;22.40;;;3.60;99.90;;;;;;4949807;29;20200;-71
2022/01/17 05:22:28;;;;;;;44.53;23.75;;;3.60;99.90;;;;;;4945431;29;20223;-71
2022/01/17 05:25:15;;;;;;;42.83;21.95;;;3.60;99.90;;;;;;4953496;29;20208;-72
2022/01/17 05:28:01;;;;;;;43.17;22.15;;;3.60;99.90;;;;;;4953533;28;20209;-71
2022/01/17 05:30:47;;;;;;;43.80;22.20;;;3.60;99.90;;;;;;4951983;28;20567;-71
2022/01/17 05:33:33;;;;;;;43.40;20.73;;;3.60;99.90;;;;;;4952581;29;20203;-71
2022/01/17 05:36:19;;;;;;;43.92;22.98;;;3.50;99.90;;;;;;4946499;29;20346;-71
2022/01/17 05:39:05;;;;;;;43.40;21.92;;;3.50;99.90;;;;;;4952698;29;20204;-71
2022/01/17 05:41:52;;;;;;;46.40;22.65;;;3.50;99.90;;;;;;4951685;28;20344;-72
2022/01/17 05:44:37;;;;;;;42.80;23.70;;;3.50;99.90;;;;;;4949486;29;20227;-71
2022/01/17 05:47:23;;;;;;;41.25;22.02;;;3.40;99.90;;;;;;4951955;29;20573;-71
2022/01/17 05:50:10;;;;;;;44.42;22.60;;;3.40;99.90;;;;;;4947779;28;20616;-71
2022/01/17 05:52:56;;;;;;;39.72;21.45;;;3.60;99.90;;;;;;4949477;29;20315;-71
2022/01/17 05:55:41;;;;;;;44.20;22.60;;;3.60;99.90;;;;;;4953216;29;20204;-71
2022/01/17 05:58:28;;;;;;;45.70;22.48;;;3.60;99.90;;;;;;4952834;29;20279;-71
2022/01/17 06:01:15;;;;;;;41.45;21.90;;;3.60;99.90;;;;;;4949574;29;20227;-71
2022/01/17 06:04:01;;;;;;;46.30;22.33;;;3.60;99.90;;;;;;4949278;29;20312;-71
2022/01/17 06:06:46;;;;;;;41.08;22.20;;;3.60;99.90;;;;;;4952531;29;20620;-71
2022/01/17 06:09:33;;;;;;;45.67;23.85;;;3.70;99.90;;;;;;4949227;29;20650;-71
2022/01/17 06:12:19;;;;;;;44.33;21.58;;;3.70;99.90;;;;;;4950130;28;20231;-72
2022/01/17 06:15:06;;;;;;;39.03;21.85;;;3.70;99.90;;;;;;4953995;29;20612;-72
2022/01/17 06:17:52;;;;;;;51.28;23.67;;;3.70;99.90;;;;;;4951808;29;20208;-72
2022/01/17 06:20:38;;;;;;;41.72;26.17;;;3.60;99.90;;;;;;4950853;29;20223;-72
2022/01/17 06:23:25;;;;;;;42.20;21.95;;;3.60;99.90;;;;;;4952241;29;20224;-72
2022/01/17 06:26:10;;;;;;;46.20;22.50;;;3.50;99.90;;;;;;4952843;29;20211;-72
2022/01/17 06:28:56;;;;;;;43.00;23.13;;;3.50;99.90;;;;;;4949063;28;20264;-72
2022/01/17 06:31:44;;;;;;;43.88;22.77;;;3.60;99.90;;;;;;4949317;28;20239;-72
2022/01/17 06:34:30;;;;;;;36.95;20.40;;;3.50;99.90;;;;;;4943277;29;20200;-72
2022/01/17 06:37:16;;;;;;;45.38;21.98;;;3.50;99.90;;;;;;4952629;29;20203;-72
2022/01/17 06:40:01;;;;;;;44.75;22.25;;;3.40;99.90;;;;;;4944833;29;20211;-72
2022/01/17 06:42:50;;;;;;;39.13;19.70;;;3.40;99.90;;;;;;4948679;29;20227;-72
2022/01/17 06:45:35;;;;;;;43.47;20.45;;;3.50;99.90;;;;;;4951667;29;20208;-72
2022/01/17 06:48:22;;;;;;;45.35;22.38;;;3.50;99.90;;;;;;4948347;28;20215;-72
2022/01/17 06:51:08;;;;;;;43.65;22.70;;;3.60;99.90;;;;;;4952052;28;20235;-72
2022/01/17 06:53:54;;;;;;;40.42;21.00;;;3.60;99.90;;;;;;4952373;28;20275;-72
2022/01/17 06:56:43;;;;;;;44.25;22.65;;;3.60;99.90;;;;;;4953552;29;20395;-72
2022/01/17 06:59:29;;;;;;;45.00;21.70;;;3.60;99.90;;;;;;4946839;29;20561;-72
2022/01/17 07:02:14;;;;;;;40.75;21.00;;;3.50;99.90;;;;;;4952222;29;20609;-72
2022/01/17 07:05:01;;;;;;;36.28;20.83;;;3.50;99.90;;;;;;4951189;29;20598;-72
2022/01/17 07:07:47;;;;;;;38.10;20.58;;;3.50;99.90;;;;;;4951371;29;20204;-72
2022/01/17 07:10:33;;;;;;;42.15;21.42;;;3.50;99.90;;;;;;4951122;29;20208;-72
2022/01/17 07:13:18;;;;;;;47.03;22.98;;;3.70;99.90;;;;;;4944945;29;20200;-72
2022/01/17 07:16:05;;;;;;;41.45;20.67;;;3.60;99.90;;;;;;4952065;29;20212;-72
2022/01/17 07:18:50;;;;;;;37.10;21.30;;;3.70;99.90;;;;;;4944877;29;20209;-72
2022/01/17 07:21:37;;;;;;;37.78;20.45;;;3.80;99.90;;;;;;4951024;29;20228;-72
2022/01/17 07:24:23;;;;;;;39.70;20.70;;;3.80;99.90;;;;;;4945179;29;20341;-72
2022/01/17 07:27:08;;;;;;;40.45;19.95;;;3.80;99.90;;;;;;4952098;28;20229;-72
2022/01/17 07:29:54;;;;;;;38.95;20.23;;;3.80;99.90;;;;;;4944879;29;20291;-72
2022/01/17 07:32:40;;;;;;;41.85;20.05;;;3.80;99.90;;;;;;4948284;29;20295;-72
2022/01/17 07:35:26;;;;;;;42.15;21.25;;;3.80;99.90;;;;;;4952121;29;20320;-72
2022/01/17 07:38:13;;;;;;;37.15;19.77;;;3.80;99.90;;;;;;4946210;29;20217;-72
2022/01/17 07:40:59;;;;;;;40.58;20.27;;;3.80;99.90;;;;;;4950415;28;20204;-72
2022/01/17 07:43:44;;;;;;;32.53;18.73;;;3.80;99.90;;;;;;4952553;28;20224;-72
2022/01/17 07:46:34;;;;;;;31.13;17.80;;;3.80;99.90;;;;;;4953472;29;20212;-72
2022/01/17 07:49:20;;;;;;;38.10;19.40;;;3.80;99.90;;;;;;4943356;29;20707;-72
2022/01/17 07:52:07;;;;;;;36.10;19.58;;;3.80;99.90;;;;;;4955311;28;20718;-72
2022/01/17 07:54:54;;;;;;;37.10;19.00;;;3.80;99.90;;;;;;4953274;29;20196;-72
2022/01/17 07:57:42;;;;;;;39.85;19.00;;;3.80;99.90;;;;;;4952840;29;20278;-71
2022/01/17 08:00:28;;;;;;;35.22;18.67;;;3.80;99.90;;;;;;4948534;29;20240;-72
2022/01/17 08:03:14;;;;;;;35.67;20.55;;;3.70;99.90;;;;;;4955936;29;20301;-71
2022/01/17 08:06:01;;;;;;;38.58;19.83;;;3.70;99.90;;;;;;4954372;29;20208;-72
2022/01/17 08:08:47;;;;;;;38.60;20.00;;;3.70;99.90;;;;;;4951152;29;20573;-72
2022/01/17 08:11:34;;;;;;;33.95;18.90;;;3.70;99.90;;;;;;4952475;28;20573;-72
2022/01/17 08:14:20;;;;;;;35.38;18.15;;;3.80;99.90;;;;;;4954415;29;20283;-72
2022/01/17 08:17:05;;;;;;;39.13;19.17;;;3.80;99.90;;;;;;4950450;29;20694;-72
2022/01/17 08:19:51;;;;;;;40.05;19.70;;;3.70;99.90;;;;;;4952661;29;20642;-72
2022/01/17 08:22:37;;;;;;;35.47;18.67;;;3.70;99.90;;;;;;4954971;28;20601;-72
2022/01/17 08:25:23;;;;;;;33.78;19.15;;;3.80;99.90;;;;;;4952992;29;20303;-72
2022/01/17 08:28:10;;;;;;;37.17;19.15;;;3.70;99.90;;;;;;4945735;29;20572;-72
2022/01/17 08:30:56;;;;;;;37.80;19.70;;;3.70;99.90;;;;;;4953401;29;20212;-72
2022/01/17 08:33:42;;;;;;;35.80;17.48;;;3.70;99.90;;;;;;4950117;29;20261;-71
2022/01/17 08:36:28;;;;;;;33.30;18.65;;;3.70;99.90;;;;;;4951071;29;20288;-71
2022/01/17 08:39:15;;;;;;;34.40;18.40;;;3.70;99.90;;;;;;4954774;29;20232;-72
2022/01/17 08:42:08;;;;;;;35.22;17.90;;;3.70;99.90;;;;;;4954746;28;20227;-72
2022/01/17 08:44:57;;;;;;;42.03;19.63;;;3.70;99.90;;;;;;4954286;28;20630;-72
2022/01/17 08:47:49;;;;;;;35.53;17.98;;;3.60;99.90;;;;;;4942631;29;20213;-72
2022/01/17 08:50:35;;;;;;;33.85;18.45;;;3.60;99.90;;;;;;4951745;29;20698;-72
2022/01/17 08:53:20;;;;;;;35.58;18.05;;;3.70;99.90;;;;;;4949139;29;20481;-72
2022/01/17 08:56:06;;;;;;;34.97;19.38;;;3.70;99.90;;;;;;4953527;28;20295;-73
2022/01/17 08:58:53;;;;;;;33.70;18.38;;;3.80;99.90;;;;;;4950613;29;20308;-73
2022/01/17 09:01:39;;;;;;;37.03;19.27;;;3.80;99.90;;;;;;4950093;28;20244;-72
2022/01/17 09:04:25;;;;;;;33.40;18.65;;;3.80;99.90;;;;;;4954883;29;20581;-73
2022/01/17 09:07:12;;;;;;;34.92;18.25;;;3.80;99.90;;;;;;4949287;28;20245;-73
2022/01/17 09:09:58;;;;;;;32.33;17.55;;;3.90;99.90;;;;;;4935646;29;20257;-72
2022/01/17 09:12:44;;;;;;;34.88;19.27;;;3.90;99.90;;;;;;4935490;29;20292;-72
2022/01/17 09:15:30;;;;;;;33.75;18.60;;;3.90;99.90;;;;;;4937821;29;20201;-72
2022/01/17 09:18:19;;;;;;;37.58;18.55;;;4.00;99.90;;;;;;4942399;28;20581;-72
2022/01/17 09:21:04;;;;;;;34.17;17.77;;;3.90;99.90;;;;;;4944337;29;20219;-72
2022/01/17 09:23:50;;;;;;;35.00;17.42;;;3.90;99.90;;;;;;4954798;29;20508;-72
2022/01/17 09:26:36;;;;;;;32.30;17.10;;;3.90;99.90;;;;;;4952487;29;20274;-72
2022/01/17 09:29:22;;;;;;;34.50;17.65;;;3.90;99.90;;;;;;4954307;29;20208;-72
2022/01/17 09:32:09;;;;;;;34.78;18.30;;;3.90;99.90;;;;;;4954825;28;20228;-72
2022/01/17 09:34:55;;;;;;;30.63;16.70;;;4.00;99.90;;;;;;4953414;29;20211;-72
2022/01/17 09:37:42;;;;;;;35.85;19.10;;;4.00;99.90;;;;;;4951815;29;20209;-72
2022/01/17 09:40:28;;;;;;;31.40;18.05;;;4.10;99.90;;;;;;4951840;29;20212;-72
2022/01/17 09:43:14;;;;;;;31.60;18.40;;;4.10;99.90;;;;;;4954272;29;20204;-72
2022/01/17 09:46:00;;;;;;;32.13;17.45;;;4.10;99.90;;;;;;4951540;29;20248;-72
2022/01/17 09:48:48;;;;;;;30.45;17.42;;;4.20;99.90;;;;;;4949887;29;20576;-72
2022/01/17 09:51:51;;;;;;;35.45;19.10;;;4.30;99.90;;;;;;4952451;28;20220;-72
2022/01/17 09:54:39;;;;;;;32.30;17.48;;;4.30;99.90;;;;;;4954322;29;20200;-72
2022/01/17 09:57:25;;;;;;;32.30;16.50;;;4.30;99.90;;;;;;4951127;29;20771;-72
2022/01/17 10:00:13;;;;;;;38.92;17.70;;;4.30;99.90;;;;;;4954189;29;20263;-72
2022/01/17 10:03:00;;;;;;;31.65;18.15;;;4.40;99.90;;;;;;4951753;29;20232;-72
2022/01/17 10:05:46;;;;;;;34.22;17.73;;;4.40;99.90;;;;;;4946300;29;20240;-73
2022/01/17 10:08:33;;;;;;;31.38;17.80;;;4.40;99.90;;;;;;4949465;28;20208;-72
2022/01/17 10:11:21;;;;;;;36.47;19.10;;;4.50;99.90;;;;;;4952549;29;20291;-72
2022/01/17 10:14:24;;;;;;;29.70;18.35;;;4.50;99.90;;;;;;4949769;29;20248;-72
2022/01/17 10:17:12;;;;;;;32.75;18.13;;;4.50;99.90;;;;;;4949388;28;20779;-72
2022/01/17 10:20:02;;;;;;;30.73;18.58;;;4.60;99.90;;;;;;4951801;29;20577;-72
2022/01/17 10:22:57;;;;;;;33.35;18.95;;;4.50;99.90;;;;;;4946319;29;20300;-72
2022/01/17 10:26:05;;;;;;;27.35;15.38;;;4.60;99.90;;;;;;4945965;28;20220;-72
2022/01/17 10:29:12;;;;;;;36.13;15.90;;;4.60;99.90;;;;;;4940071;29;20208;-72
2022/01/17 10:35:15;;;;;;;33.22;16.90;;;4.70;99.90;;;;;;4950084;28;20252;-72
2022/01/17 10:38:05;;;;;;;34.33;17.00;;;4.70;99.90;;;;;;4949362;29;20207;-72
2022/01/17 10:40:58;;;;;;;36.35;18.73;;;4.70;99.90;;;;;;4947832;28;20208;-72
2022/01/17 10:43:47;;;;;;;32.35;17.33;;;4.70;99.90;;;;;;4947548;29;20336;-72
2022/01/17 10:46:35;;;;;;;33.90;17.65;;;4.70;99.90;;;;;;4951111;29;20297;-72
2022/01/17 10:49:22;;;;;;;32.72;17.63;;;4.70;99.90;;;;;;4950506;28;20328;-72
2022/01/17 10:52:13;;;;;;;32.17;15.52;;;4.80;99.90;;;;;;4950577;28;20224;-72
2022/01/17 10:55:01;;;;;;;35.42;17.17;;;4.80;99.90;;;;;;4951474;29;20253;-72
2022/01/17 10:57:51;;;;;;;27.02;17.00;;;4.80;99.90;;;;;;4951447;29;20332;-72
2022/01/17 11:00:39;;;;;;;32.75;17.25;;;4.80;99.90;;;;;;4948080;28;20574;-72
2022/01/17 11:03:28;;;;;;;29.35;15.35;;;4.80;99.90;;;;;;4947913;29;20212;-72
2022/01/17 11:06:21;;;;;;;28.20;16.13;;;4.80;99.90;;;;;;4949203;29;20225;-72
2022/01/17 11:09:07;;;;;;;28.42;15.35;;;4.80;99.90;;;;;;4951639;29;20705;-72
2022/01/17 11:11:53;;;;;;;30.40;15.98;;;4.90;99.90;;;;;;4949985;29;20721;-72
2022/01/17 11:14:41;;;;;;;28.83;16.50;;;4.90;99.90;;;;;;4947002;29;20273;-72
2022/01/17 11:17:34;;;;;;;28.52;16.00;;;4.90;99.90;;;;;;4946340;29;20673;-72
2022/01/17 11:20:22;;;;;;;27.17;16.58;;;4.90;99.90;;;;;;4949210;28;20703;-72
2022/01/17 11:23:08;;;;;;;32.72;16.67;;;4.90;99.90;;;;;;4956038;28;20731;-72
2022/01/17 11:25:55;;;;;;;35.05;18.08;;;5.00;99.90;;;;;;4952156;29;20236;-72
2022/01/17 11:28:42;;;;;;;29.27;16.00;;;5.00;99.90;;;;;;4954151;29;20207;-72
2022/01/17 11:31:29;;;;;;;26.83;15.90;;;4.90;99.90;;;;;;4945944;28;20285;-72
2022/01/17 11:34:17;;;;;;;28.20;15.63;;;4.80;99.90;;;;;;4950236;28;20199;-72
2022/01/17 11:37:03;;;;;;;28.05;15.23;;;4.80;99.90;;;;;;4941888;28;20687;-73
2022/01/17 11:39:51;;;;;;;27.33;15.38;;;4.90;99.90;;;;;;4945871;28;20200;-70
2022/01/17 11:42:39;;;;;;;24.17;15.10;;;4.90;99.90;;;;;;4951317;29;20219;-72
2022/01/17 11:45:37;;;;;;;27.50;15.00;;;4.90;99.90;;;;;;4948331;28;20224;-72
2022/01/17 11:48:30;;;;;;;23.00;13.82;;;4.90;99.90;;;;;;4952642;28;20349;-72
2022/01/17 11:51:16;;;;;;;26.45;14.85;;;5.00;99.90;;;;;;4953046;28;20344;-71
2022/01/17 11:54:14;;;;;;;25.95;14.13;;;5.00;99.90;;;;;;4950735;29;20212;-71
2022/01/17 11:57:02;;;;;;;27.08;15.77;;;5.00;99.90;;;;;;4952790;28;20208;-71
2022/01/17 11:59:49;;;;;;;29.00;15.88;;;5.00;99.90;;;;;;4948481;28;20339;-72
2022/01/17 12:02:37;;;;;;;24.10;15.60;;;5.00;99.90;;;;;;4947786;28;20633;-71
2022/01/17 12:05:43;;;;;;;25.70;14.23;;;5.10;99.90;;;;;;4947201;29;20706;-72
2022/01/17 12:08:30;;;;;;;25.08;16.13;;;5.10;99.90;;;;;;4951862;28;20745;-72
2022/01/17 12:11:30;;;;;;;25.02;13.60;;;5.00;99.90;;;;;;4951385;28;20235;-72
2022/01/17 12:14:27;;;;;;;33.08;15.13;;;5.00;99.90;;;;;;4951443;29;20207;-72
2022/01/17 12:17:29;;;;;;;29.90;15.93;;;5.00;99.90;;;;;;4954359;29;20320;-71
2022/01/17 12:20:24;;;;;;;22.38;14.25;;;5.10;99.90;;;;;;4954124;29;20232;-71
2022/01/17 12:23:26;;;;;;;21.60;13.35;;;5.00;99.90;;;;;;4953054;29;20219;-71
2022/01/17 12:26:28;;;;;;;26.02;14.13;;;5.10;99.90;;;;;;4952660;29;20311;-71
2022/01/17 12:29:14;;;;;;;27.73;15.13;;;5.10;99.90;;;;;;4950250;29;20204;-72
2022/01/17 12:32:00;;;;;;;22.25;13.30;;;5.10;99.90;;;;;;4952191;29;20227;-72
2022/01/17 12:34:45;;;;;;;25.85;14.30;;;5.10;99.90;;;;;;4950553;28;20200;-72
2022/01/17 12:37:34;;;;;;;27.48;15.65;;;5.00;99.90;;;;;;4953923;29;20208;-72
2022/01/17 12:40:24;;;;;;;25.00;13.63;;;4.90;99.90;;;;;;4952684;29;20197;-72
2022/01/17 12:43:12;;;;;;;24.60;13.20;;;5.00;99.90;;;;;;4953578;29;20236;-72
2022/01/17 12:45:59;;;;;;;23.15;14.60;;;5.00;99.90;;;;;;4952749;29;20220;-72
2022/01/17 12:48:48;;;;;;;23.85;13.15;;;5.00;99.90;;;;;;4946078;28;20263;-72
2022/01/17 12:51:34;;;;;;;25.55;13.75;;;5.00;99.90;;;;;;4946188;28;20405;-72
2022/01/17 12:54:22;;;;;;;24.33;13.88;;;5.00;99.90;;;;;;4948745;28;20208;-72
2022/01/17 12:57:09;;;;;;;24.77;13.43;;;5.00;99.90;;;;;;4949856;28;20220;-71
2022/01/17 12:59:54;;;;;;;22.45;13.77;;;5.10;99.90;;;;;;4946458;29;20335;-71
2022/01/17 13:02:48;;;;;;;24.48;14.80;;;5.10;99.90;;;;;;4953380;28;20220;-72
2022/01/17 13:05:35;;;;;;;21.80;13.80;;;5.10;99.90;;;;;;4950769;29;20268;-72
2022/01/17 13:08:22;;;;;;;24.98;15.15;;;5.10;99.90;;;;;;4950766;28;20216;-72
2022/01/17 13:11:11;;;;;;;27.70;15.38;;;5.10;99.90;;;;;;4951549;28;20693;-72
2022/01/17 13:14:01;;;;;;;26.70;14.88;;;5.10;99.90;;;;;;4949894;29;20204;-72
2022/01/17 13:16:48;;;;;;;27.73;15.07;;;5.10;99.90;;;;;;4948386;28;20209;-72
2022/01/17 13:19:36;;;;;;;30.40;16.17;;;5.10;99.90;;;;;;4949806;29;20248;-72
2022/01/17 13:22:22;;;;;;;26.65;16.35;;;5.10;99.90;;;;;;4947335;28;20223;-72
2022/01/17 13:25:09;;;;;;;20.70;14.30;;;5.00;99.90;;;;;;4945769;29;20220;-72
2022/01/17 13:27:57;;;;;;;24.25;14.30;;;5.00;99.90;;;;;;4939852;28;20209;-72
2022/01/17 13:30:45;;;;;;;25.05;14.07;;;5.00;99.90;;;;;;4940137;28;20208;-72
2022/01/17 13:33:31;;;;;;;29.27;16.00;;;5.00;99.90;;;;;;4935477;28;21185;-71
2022/01/17 13:36:21;;;;;;;30.65;16.10;;;5.00;99.90;;;;;;4948221;28;20678;-72
2022/01/17 13:39:09;;;;;;;28.75;15.82;;;4.90;99.90;;;;;;4953080;28;20341;-72
2022/01/17 13:41:57;;;;;;;25.33;15.27;;;4.90;99.90;;;;;;4941602;28;20228;-72
2022/01/17 13:44:42;;;;;;;28.92;15.40;;;5.00;99.90;;;;;;4947107;28;20264;-72
2022/01/17 13:47:29;;;;;;;24.92;14.60;;;5.00;99.90;;;;;;4951330;28;20287;-72
2022/01/17 13:50:15;;;;;;;32.03;15.18;;;5.00;99.90;;;;;;4948668;29;20196;-71
2022/01/17 13:53:01;;;;;;;21.55;13.77;;;5.00;99.90;;;;;;4946868;29;20303;-72
2022/01/17 13:55:48;;;;;;;24.63;13.93;;;5.10;99.90;;;;;;4943646;29;20222;-72
2022/01/17 13:58:38;;;;;;;24.30;13.63;;;5.10;99.90;;;;;;4948883;29;20670;-71
2022/01/17 14:01:24;;;;;;;22.75;14.68;;;5.10;99.90;;;;;;4941844;28;20365;-71
2022/01/17 14:04:19;;;;;;;27.95;15.98;;;5.10;99.90;;;;;;4944107;29;20212;-72
2022/01/17 14:07:21;;;;;;;28.65;14.52;;;5.20;99.90;;;;;;4948524;29;20220;-72
2022/01/17 14:10:18;;;;;;;26.17;16.27;;;5.20;99.90;;;;;;4934882;29;20573;-72
2022/01/17 14:13:07;;;;;;;25.92;15.10;;;5.20;99.90;;;;;;4935161;29;20332;-72
2022/01/17 14:15:53;;;;;;;29.65;15.23;;;5.20;99.90;;;;;;4951342;29;20200;-72
2022/01/17 14:18:42;;;;;;;30.45;15.02;;;5.20;99.90;;;;;;4945784;29;20333;-72
2022/01/17 14:21:35;;;;;;;27.55;13.07;;;5.20;99.90;;;;;;4953516;28;20295;-72
2022/01/17 14:24:23;;;;;;;26.35;13.52;;;5.30;99.90;;;;;;4951017;29;20313;-72
2022/01/17 14:27:14;;;;;;;26.15;14.18;;;5.30;99.90;;;;;;4950957;29;20285;-72
2022/01/17 14:30:03;;;;;;;26.98;13.43;;;5.40;99.90;;;;;;4950845;29;20203;-72
2022/01/17 14:32:49;;;;;;;24.05;13.93;;;5.40;99.90;;;;;;4946511;29;20232;-72
2022/01/17 14:35:34;;;;;;;25.17;15.10;;;5.40;99.90;;;;;;4951136;29;20677;-72